sensor_id;sensor_type;location;lat;lon;timestamp;pressure;altitude;pressure_sealevel;temperature;humidity
12868;BME280;33517;49.866;8.320;2024-03-08T00:02:27;100558.53;;;6.13;63.90
12868;BME280;33517;49.866;8.320;2024-03-08T00:05:19;100555.75;;;6.05;63.87
12868;BME280;33517;49.866;8.320;2024-03-08T00:08:12;100556.69;;;5.95;64.78
12868;BME280;33517;49.866;8.320;2024-03-08T00:11:05;100549.03;;;5.82;64.48
12868;BME280;33517;49.866;8.320;2024-03-08T00:13:58;100546.28;;;5.74;64.63
12868;BME280;33517;49.866;8.320;2024-03-08T00:16:50;100553.09;;;5.66;65.16
12868;BME280;33517;49.866;8.320;2024-03-08T00:19:43;100551.38;;;5.55;65.24
12868;BME280;33517;49.866;8.320;2024-03-08T00:22:35;100547.78;;;5.46;64.90
12868;BME280;33517;49.866;8.320;2024-03-08T00:25:27;100554.59;;;5.38;65.81
12868;BME280;33517;49.866;8.320;2024-03-08T00:28:20;100552.75;;;5.29;65.73
12868;BME280;33517;49.866;8.320;2024-03-08T00:31:12;100547.34;;;5.21;65.87
12868;BME280;33517;49.866;8.320;2024-03-08T00:34:04;100555.00;;;5.13;65.52
12868;BME280;33517;49.866;8.320;2024-03-08T00:36:56;100551.78;;;5.09;65.92
12868;BME280;33517;49.866;8.320;2024-03-08T00:39:48;100547.91;;;5.04;66.44
12868;BME280;33517;49.866;8.320;2024-03-08T00:42:40;100546.78;;;4.97;66.13
12868;BME280;33517;49.866;8.320;2024-03-08T00:45:35;100542.19;;;4.89;66.70
12868;BME280;33517;49.866;8.320;2024-03-08T00:48:27;100538.44;;;4.82;67.10
12868;BME280;33517;49.866;8.320;2024-03-08T00:51:19;100535.38;;;4.77;66.96
12868;BME280;33517;49.866;8.320;2024-03-08T00:54:11;100535.84;;;4.71;67.38
12868;BME280;33517;49.866;8.320;2024-03-08T00:57:04;100532.94;;;4.64;67.35
12868;BME280;33517;49.866;8.320;2024-03-08T00:59:57;100530.97;;;4.57;67.25
12868;BME280;33517;49.866;8.320;2024-03-08T01:02:50;100527.06;;;4.51;67.89
12868;BME280;33517;49.866;8.320;2024-03-08T01:05:42;100526.47;;;4.48;68.09
12868;BME280;33517;49.866;8.320;2024-03-08T01:08:34;100516.56;;;4.42;68.29
12868;BME280;33517;49.866;8.320;2024-03-08T01:11:28;100521.28;;;4.37;68.24
12868;BME280;33517;49.866;8.320;2024-03-08T01:14:21;100515.75;;;4.30;68.96
12868;BME280;33517;49.866;8.320;2024-03-08T01:17:13;100503.94;;;4.26;68.62
12868;BME280;33517;49.866;8.320;2024-03-08T01:20:07;100504.06;;;4.25;68.92
12868;BME280;33517;49.866;8.320;2024-03-08T01:23:01;100504.41;;;4.20;68.78
12868;BME280;33517;49.866;8.320;2024-03-08T01:25:54;100499.56;;;4.16;69.18
12868;BME280;33517;49.866;8.320;2024-03-08T01:28:49;100494.75;;;4.11;69.06
12868;BME280;33517;49.866;8.320;2024-03-08T01:31:41;100492.25;;;4.10;69.92
12868;BME280;33517;49.866;8.320;2024-03-08T01:34:33;100495.22;;;4.05;70.00
12868;BME280;33517;49.866;8.320;2024-03-08T01:37:26;100488.59;;;4.01;69.99
12868;BME280;33517;49.866;8.320;2024-03-08T01:40:20;100494.03;;;3.98;70.80
12868;BME280;33517;49.866;8.320;2024-03-08T01:43:17;100484.72;;;3.96;70.37
12868;BME280;33517;49.866;8.320;2024-03-08T01:46:10;100478.81;;;3.94;70.60
12868;BME280;33517;49.866;8.320;2024-03-08T01:49:05;100473.94;;;3.89;70.37
12868;BME280;33517;49.866;8.320;2024-03-08T01:51:57;100473.38;;;3.86;70.22
12868;BME280;33517;49.866;8.320;2024-03-08T01:54:50;100480.72;;;3.81;70.59
12868;BME280;33517;49.866;8.320;2024-03-08T01:57:43;100481.06;;;3.76;70.74
12868;BME280;33517;49.866;8.320;2024-03-08T02:00:35;100475.41;;;3.71;70.56
12868;BME280;33517;49.866;8.320;2024-03-08T02:03:28;100464.38;;;3.67;70.57
12868;BME280;33517;49.866;8.320;2024-03-08T02:06:22;100463.00;;;3.63;71.08
12868;BME280;33517;49.866;8.320;2024-03-08T02:09:14;100454.72;;;3.58;72.19
12868;BME280;33517;49.866;8.320;2024-03-08T02:12:09;100449.75;;;3.55;71.74
12868;BME280;33517;49.866;8.320;2024-03-08T02:15:01;100446.19;;;3.56;71.92
12868;BME280;33517;49.866;8.320;2024-03-08T02:17:53;100455.66;;;3.57;72.30
12868;BME280;33517;49.866;8.320;2024-03-08T02:20:47;100453.19;;;3.56;72.11
12868;BME280;33517;49.866;8.320;2024-03-08T02:23:39;100451.66;;;3.53;72.30
12868;BME280;33517;49.866;8.320;2024-03-08T02:26:31;100442.19;;;3.52;72.32
12868;BME280;33517;49.866;8.320;2024-03-08T02:29:24;100445.97;;;3.48;72.46
12868;BME280;33517;49.866;8.320;2024-03-08T02:32:16;100442.69;;;3.46;72.34
12868;BME280;33517;49.866;8.320;2024-03-08T02:35:08;100433.47;;;3.42;72.81
12868;BME280;33517;49.866;8.320;2024-03-08T02:38:02;100428.34;;;3.41;73.22
12868;BME280;33517;49.866;8.320;2024-03-08T02:40:54;100425.16;;;3.37;73.33
12868;BME280;33517;49.866;8.320;2024-03-08T02:43:46;100425.53;;;3.33;73.39
12868;BME280;33517;49.866;8.320;2024-03-08T02:46:38;100419.50;;;3.32;73.77
12868;BME280;33517;49.866;8.320;2024-03-08T02:49:31;100426.47;;;3.32;73.30
12868;BME280;33517;49.866;8.320;2024-03-08T02:52:23;100424.34;;;3.26;73.74
12868;BME280;33517;49.866;8.320;2024-03-08T02:55:16;100425.75;;;3.19;73.70
12868;BME280;33517;49.866;8.320;2024-03-08T02:58:08;100425.41;;;3.12;73.62
12868;BME280;33517;49.866;8.320;2024-03-08T03:01:01;100418.91;;;3.07;73.89
12868;BME280;33517;49.866;8.320;2024-03-08T03:03:54;100418.56;;;3.00;74.00
12868;BME280;33517;49.866;8.320;2024-03-08T03:06:46;100420.66;;;2.95;74.44
12868;BME280;33517;49.866;8.320;2024-03-08T03:09:38;100408.13;;;2.89;73.85
12868;BME280;33517;49.866;8.320;2024-03-08T03:12:31;100412.84;;;2.84;74.49
12868;BME280;33517;49.866;8.320;2024-03-08T03:15:24;100406.34;;;2.78;74.59
12868;BME280;33517;49.866;8.320;2024-03-08T03:18:16;100407.41;;;2.76;74.08
12868;BME280;33517;49.866;8.320;2024-03-08T03:21:12;100409.53;;;2.71;74.72
12868;BME280;33517;49.866;8.320;2024-03-08T03:24:04;100413.28;;;2.67;74.82
12868;BME280;33517;49.866;8.320;2024-03-08T03:27:00;100412.59;;;2.65;75.25
12868;BME280;33517;49.866;8.320;2024-03-08T03:29:59;100405.03;;;2.62;75.50
12868;BME280;33517;49.866;8.320;2024-03-08T03:33:11;100407.00;;;2.58;75.58
12868;BME280;33517;49.866;8.320;2024-03-08T03:36:05;100401.94;;;2.57;75.48
12868;BME280;33517;49.866;8.320;2024-03-08T03:38:59;100405.69;;;2.53;76.37
12868;BME280;33517;49.866;8.320;2024-03-08T03:42:01;100410.28;;;2.49;76.19
12868;BME280;33517;49.866;8.320;2024-03-08T03:44:53;100401.91;;;2.46;76.09
12868;BME280;33517;49.866;8.320;2024-03-08T03:47:46;100412.41;;;2.44;76.37
12868;BME280;33517;49.866;8.320;2024-03-08T03:50:39;100403.91;;;2.42;76.21
12868;BME280;33517;49.866;8.320;2024-03-08T03:53:30;100404.13;;;2.39;76.31
12868;BME280;33517;49.866;8.320;2024-03-08T03:56:25;100398.25;;;2.37;76.01
12868;BME280;33517;49.866;8.320;2024-03-08T03:59:17;100395.97;;;2.33;76.37
12868;BME280;33517;49.866;8.320;2024-03-08T04:02:08;100398.56;;;2.33;76.17
12868;BME280;33517;49.866;8.320;2024-03-08T04:05:02;100399.72;;;2.29;76.46
12868;BME280;33517;49.866;8.320;2024-03-08T04:07:54;100406.81;;;2.27;76.59
12868;BME280;33517;49.866;8.320;2024-03-08T04:10:46;100395.72;;;2.25;76.33
12868;BME280;33517;49.866;8.320;2024-03-08T04:13:38;100389.91;;;2.21;77.09
12868;BME280;33517;49.866;8.320;2024-03-08T04:16:30;100387.44;;;2.20;76.99
12868;BME280;33517;49.866;8.320;2024-03-08T04:19:22;100389.31;;;2.18;77.15
12868;BME280;33517;49.866;8.320;2024-03-08T04:22:16;100390.97;;;2.19;77.58
12868;BME280;33517;49.866;8.320;2024-03-08T04:25:08;100391.06;;;2.17;77.92
12868;BME280;33517;49.866;8.320;2024-03-08T04:28:01;100391.19;;;2.16;78.00
12868;BME280;33517;49.866;8.320;2024-03-08T04:30:52;100387.88;;;2.14;78.09
12868;BME280;33517;49.866;8.320;2024-03-08T04:33:45;100393.28;;;2.11;77.56
12868;BME280;33517;49.866;8.320;2024-03-08T04:36:37;100391.63;;;2.10;78.01
12868;BME280;33517;49.866;8.320;2024-03-08T04:39:30;100385.84;;;2.06;77.99
12868;BME280;33517;49.866;8.320;2024-03-08T04:42:22;100386.78;;;2.05;78.39
12868;BME280;33517;49.866;8.320;2024-03-08T04:45:14;100385.25;;;2.03;77.93
12868;BME280;33517;49.866;8.320;2024-03-08T04:48:07;100383.69;;;2.00;77.57
12868;BME280;33517;49.866;8.320;2024-03-08T04:50:59;100377.78;;;1.98;77.91
12868;BME280;33517;49.866;8.320;2024-03-08T04:53:51;100379.66;;;1.96;77.83
12868;BME280;33517;49.866;8.320;2024-03-08T04:56:45;100378.22;;;1.92;78.03
12868;BME280;33517;49.866;8.320;2024-03-08T04:59:37;100372.44;;;1.88;77.82
12868;BME280;33517;49.866;8.320;2024-03-08T05:02:28;100371.84;;;1.85;78.12
12868;BME280;33517;49.866;8.320;2024-03-08T05:05:21;100368.53;;;1.83;78.25
12868;BME280;33517;49.866;8.320;2024-03-08T05:08:13;100364.38;;;1.80;78.49
12868;BME280;33517;49.866;8.320;2024-03-08T05:11:05;100367.09;;;1.79;79.17
12868;BME280;33517;49.866;8.320;2024-03-08T05:13:59;100369.19;;;1.74;78.28
12868;BME280;33517;49.866;8.320;2024-03-08T05:16:51;100369.53;;;1.69;78.97
12868;BME280;33517;49.866;8.320;2024-03-08T05:19:43;100372.34;;;1.66;79.00
12868;BME280;33517;49.866;8.320;2024-03-08T05:22:35;100359.47;;;1.65;79.45
12868;BME280;33517;49.866;8.320;2024-03-08T05:25:26;100363.00;;;1.64;78.90
12868;BME280;33517;49.866;8.320;2024-03-08T05:28:18;100368.41;;;1.61;79.51
12868;BME280;33517;49.866;8.320;2024-03-08T05:31:18;100366.75;;;1.60;78.92
12868;BME280;33517;49.866;8.320;2024-03-08T05:34:11;100363.66;;;1.55;79.78
12868;BME280;33517;49.866;8.320;2024-03-08T05:37:05;100362.13;;;1.52;80.01
12868;BME280;33517;49.866;8.320;2024-03-08T05:39:57;100357.84;;;1.51;80.68
12868;BME280;33517;49.866;8.320;2024-03-08T05:42:49;100360.69;;;1.48;81.36
12868;BME280;33517;49.866;8.320;2024-03-08T05:45:41;100351.25;;;1.47;81.41
12868;BME280;33517;49.866;8.320;2024-03-08T05:48:34;100356.44;;;1.47;81.45
12868;BME280;33517;49.866;8.320;2024-03-08T05:51:26;100352.78;;;1.50;81.08
12868;BME280;33517;49.866;8.320;2024-03-08T05:54:18;100347.59;;;1.50;81.22
12868;BME280;33517;49.866;8.320;2024-03-08T05:57:12;100346.69;;;1.51;82.17
12868;BME280;33517;49.866;8.320;2024-03-08T06:00:05;100345.59;;;1.53;82.34
12868;BME280;33517;49.866;8.320;2024-03-08T06:02:57;100344.56;;;1.56;82.31
12868;BME280;33517;49.866;8.320;2024-03-08T06:05:51;100338.94;;;1.62;82.59
12868;BME280;33517;49.866;8.320;2024-03-08T06:08:43;100337.91;;;1.64;83.56
12868;BME280;33517;49.866;8.320;2024-03-08T06:11:35;100342.53;;;1.72;83.42
12868;BME280;33517;49.866;8.320;2024-03-08T06:14:28;100348.22;;;1.77;83.95
12868;BME280;33517;49.866;8.320;2024-03-08T06:17:20;100337.41;;;1.83;83.88
12868;BME280;33517;49.866;8.320;2024-03-08T06:20:16;100337.06;;;1.88;84.02
12868;BME280;33517;49.866;8.320;2024-03-08T06:23:09;100335.88;;;1.92;84.41
12868;BME280;33517;49.866;8.320;2024-03-08T06:26:01;100331.09;;;1.98;84.38
12868;BME280;33517;49.866;8.320;2024-03-08T06:28:54;100337.25;;;2.08;84.21
12868;BME280;33517;49.866;8.320;2024-03-08T06:31:45;100340.81;;;2.18;83.88
12868;BME280;33517;49.866;8.320;2024-03-08T06:34:37;100341.78;;;2.28;83.77
12868;BME280;33517;49.866;8.320;2024-03-08T06:37:29;100337.47;;;2.51;83.36
12868;BME280;33517;49.866;8.320;2024-03-08T06:40:23;100328.66;;;4.86;78.34
12868;BME280;33517;49.866;8.320;2024-03-08T06:43:15;100320.41;;;6.74;71.45
12868;BME280;33517;49.866;8.320;2024-03-08T06:46:08;100316.59;;;7.50;65.13
12868;BME280;33517;49.866;8.320;2024-03-08T06:49:00;100313.25;;;8.27;62.23
12868;BME280;33517;49.866;8.320;2024-03-08T06:51:53;100311.53;;;8.95;60.81
12868;BME280;33517;49.866;8.320;2024-03-08T06:54:46;100319.44;;;9.53;58.07
12868;BME280;33517;49.866;8.320;2024-03-08T06:57:39;100313.81;;;10.14;56.55
12868;BME280;33517;49.866;8.320;2024-03-08T07:00:32;100315.38;;;10.71;55.09
12868;BME280;33517;49.866;8.320;2024-03-08T07:03:24;100330.31;;;11.64;53.72
12868;BME280;33517;49.866;8.320;2024-03-08T07:06:17;100326.59;;;12.04;50.54
12868;BME280;33517;49.866;8.320;2024-03-08T07:09:09;100324.28;;;11.86;48.60
12868;BME280;33517;49.866;8.320;2024-03-08T07:12:02;100322.91;;;12.36;48.21
12868;BME280;33517;49.866;8.320;2024-03-08T07:14:56;100322.84;;;12.73;49.18
12868;BME280;33517;49.866;8.320;2024-03-08T07:17:47;100328.81;;;13.04;46.14
12868;BME280;33517;49.866;8.320;2024-03-08T07:20:39;100326.84;;;13.42;45.28
12868;BME280;33517;49.866;8.320;2024-03-08T07:23:31;100322.53;;;14.12;46.17
12868;BME280;33517;49.866;8.320;2024-03-08T07:26:54;100326.38;;;14.86;43.82
12868;BME280;33517;49.866;8.320;2024-03-08T07:29:46;100326.84;;;14.62;41.74
12868;BME280;33517;49.866;8.320;2024-03-08T07:32:40;100314.41;;;14.35;42.32
12868;BME280;33517;49.866;8.320;2024-03-08T07:35:32;100314.03;;;14.65;41.52
12868;BME280;33517;49.866;8.320;2024-03-08T07:38:24;100321.63;;;15.09;41.88
12868;BME280;33517;49.866;8.320;2024-03-08T07:41:16;100319.19;;;15.14;41.25
12868;BME280;33517;49.866;8.320;2024-03-08T07:44:08;100312.78;;;15.36;40.34
12868;BME280;33517;49.866;8.320;2024-03-08T07:47:00;100311.28;;;15.81;40.15
12868;BME280;33517;49.866;8.320;2024-03-08T07:49:53;100307.28;;;16.11;39.43
12868;BME280;33517;49.866;8.320;2024-03-08T07:52:45;100302.94;;;16.89;38.49
12868;BME280;33517;49.866;8.320;2024-03-08T07:55:38;100308.31;;;16.63;37.82
12868;BME280;33517;49.866;8.320;2024-03-08T07:58:33;100300.47;;;16.87;36.53
12868;BME280;33517;49.866;8.320;2024-03-08T08:01:25;100298.09;;;16.40;38.10
12868;BME280;33517;49.866;8.320;2024-03-08T08:04:16;100286.09;;;17.08;37.27
12868;BME280;33517;49.866;8.320;2024-03-08T08:07:11;100281.28;;;16.85;36.55
12868;BME280;33517;49.866;8.320;2024-03-08T08:10:03;100284.31;;;17.53;36.56
12868;BME280;33517;49.866;8.320;2024-03-08T08:12:56;100275.13;;;16.85;36.01
12868;BME280;33517;49.866;8.320;2024-03-08T08:15:48;100269.41;;;16.81;36.72
12868;BME280;33517;49.866;8.320;2024-03-08T08:18:41;100262.31;;;16.69;36.25
12868;BME280;33517;49.866;8.320;2024-03-08T08:21:33;100254.00;;;17.85;36.40
12868;BME280;33517;49.866;8.320;2024-03-08T08:24:26;100256.28;;;18.30;34.00
12868;BME280;33517;49.866;8.320;2024-03-08T08:27:18;100244.63;;;18.31;34.81
12868;BME280;33517;49.866;8.320;2024-03-08T08:30:12;100249.16;;;18.49;33.95
12868;BME280;33517;49.866;8.320;2024-03-08T08:33:04;100240.94;;;18.26;34.41
12868;BME280;33517;49.866;8.320;2024-03-08T08:35:56;100236.31;;;18.82;33.85
12868;BME280;33517;49.866;8.320;2024-03-08T08:38:48;100235.50;;;20.00;32.53
12868;BME280;33517;49.866;8.320;2024-03-08T08:41:42;100239.16;;;19.65;32.78
12868;BME280;33517;49.866;8.320;2024-03-08T08:44:34;100229.22;;;19.42;33.25
12868;BME280;33517;49.866;8.320;2024-03-08T08:47:25;100229.00;;;19.96;32.19
12868;BME280;33517;49.866;8.320;2024-03-08T08:50:18;100232.19;;;20.28;32.07
12868;BME280;33517;49.866;8.320;2024-03-08T08:53:13;100227.44;;;20.30;32.19
12868;BME280;33517;49.866;8.320;2024-03-08T08:56:06;100223.13;;;22.76;30.19
12868;BME280;33517;49.866;8.320;2024-03-08T08:58:59;100219.50;;;23.57;28.00
12868;BME280;33517;49.866;8.320;2024-03-08T09:01:51;100223.91;;;23.20;27.21
12868;BME280;33517;49.866;8.320;2024-03-08T09:04:44;100226.22;;;23.86;27.37
12868;BME280;33517;49.866;8.320;2024-03-08T09:07:36;100220.22;;;23.79;27.03
12868;BME280;33517;49.866;8.320;2024-03-08T09:10:28;100210.88;;;23.55;26.44
12868;BME280;33517;49.866;8.320;2024-03-08T09:13:20;100201.53;;;23.31;27.12
12868;BME280;33517;49.866;8.320;2024-03-08T09:16:13;100198.50;;;23.81;26.25
12868;BME280;33517;49.866;8.320;2024-03-08T09:19:05;100179.25;;;23.62;26.78
12868;BME280;33517;49.866;8.320;2024-03-08T09:21:58;100182.31;;;23.44;26.83
12868;BME280;33517;49.866;8.320;2024-03-08T09:24:49;100163.59;;;23.86;26.59
12868;BME280;33517;49.866;8.320;2024-03-08T09:27:41;100164.56;;;24.06;26.12
12868;BME280;33517;49.866;8.320;2024-03-08T09:30:33;100169.69;;;24.54;26.01
12868;BME280;33517;49.866;8.320;2024-03-08T09:33:27;100151.94;;;24.53;26.21
12868;BME280;33517;49.866;8.320;2024-03-08T09:36:19;100150.78;;;24.39;26.17
12868;BME280;33517;49.866;8.320;2024-03-08T09:39:11;100143.41;;;24.15;25.95
12868;BME280;33517;49.866;8.320;2024-03-08T09:42:07;100134.59;;;23.03;27.32
12868;BME280;33517;49.866;8.320;2024-03-08T09:44:59;100131.16;;;23.07;27.02
12868;BME280;33517;49.866;8.320;2024-03-08T09:47:51;100131.91;;;22.76;26.58
12868;BME280;33517;49.866;8.320;2024-03-08T09:50:45;100127.09;;;21.96;28.08
12868;BME280;33517;49.866;8.320;2024-03-08T09:53:37;100121.31;;;22.05;27.96
12868;BME280;33517;49.866;8.320;2024-03-08T09:56:29;100119.88;;;22.57;27.47
12868;BME280;33517;49.866;8.320;2024-03-08T09:59:23;100120.94;;;22.18;27.53
12868;BME280;33517;49.866;8.320;2024-03-08T10:02:33;100115.53;;;22.34;26.92
12868;BME280;33517;49.866;8.320;2024-03-08T10:05:26;100107.97;;;23.23;27.22
12868;BME280;33517;49.866;8.320;2024-03-08T10:08:19;100106.84;;;23.45;26.30
12868;BME280;33517;49.866;8.320;2024-03-08T10:11:11;100114.22;;;22.80;26.70
12868;BME280;33517;49.866;8.320;2024-03-08T10:14:04;100102.78;;;23.43;26.50
12868;BME280;33517;49.866;8.320;2024-03-08T10:16:57;100100.66;;;23.18;26.29
12868;BME280;33517;49.866;8.320;2024-03-08T10:19:51;100101.78;;;22.96;26.63
12868;BME280;33517;49.866;8.320;2024-03-08T10:22:43;100092.72;;;22.75;26.27
12868;BME280;33517;49.866;8.320;2024-03-08T10:25:36;100087.72;;;22.40;26.71
12868;BME280;33517;49.866;8.320;2024-03-08T10:28:28;100092.66;;;22.70;26.80
12868;BME280;33517;49.866;8.320;2024-03-08T10:31:20;100076.16;;;23.10;26.47
12868;BME280;33517;49.866;8.320;2024-03-08T10:34:12;100072.47;;;22.89;27.55
12868;BME280;33517;49.866;8.320;2024-03-08T10:37:05;100071.81;;;23.04;25.94
12868;BME280;33517;49.866;8.320;2024-03-08T10:40:02;100057.59;;;22.12;27.35
12868;BME280;33517;49.866;8.320;2024-03-08T10:43:02;100063.53;;;22.35;26.83
12868;BME280;33517;49.866;8.320;2024-03-08T10:46:03;100057.59;;;22.55;27.61
12868;BME280;33517;49.866;8.320;2024-03-08T10:49:00;100053.78;;;22.99;27.09
12868;BME280;33517;49.866;8.320;2024-03-08T10:51:56;100050.44;;;23.14;27.09
12868;BME280;33517;49.866;8.320;2024-03-08T10:54:49;100041.88;;;24.52;26.82
12868;BME280;33517;49.866;8.320;2024-03-08T10:57:42;100051.59;;;24.68;25.51
12868;BME280;33517;49.866;8.320;2024-03-08T11:00:36;100047.06;;;23.28;26.17
12868;BME280;33517;49.866;8.320;2024-03-08T11:03:47;100033.06;;;23.58;26.22
12868;BME280;33517;49.866;8.320;2024-03-08T11:06:45;100032.44;;;23.83;26.21
12868;BME280;33517;49.866;8.320;2024-03-08T11:09:38;100030.97;;;23.65;26.68
12868;BME280;33517;49.866;8.320;2024-03-08T11:12:36;100021.91;;;23.39;26.70
12868;BME280;33517;49.866;8.320;2024-03-08T11:15:29;100036.13;;;23.08;26.55
12868;BME280;33517;49.866;8.320;2024-03-08T11:18:22;100022.50;;;23.15;27.22
12868;BME280;33517;49.866;8.320;2024-03-08T11:21:17;100023.59;;;22.60;27.21
12868;BME280;33517;49.866;8.320;2024-03-08T11:24:11;100018.50;;;23.96;27.36
12868;BME280;33517;49.866;8.320;2024-03-08T11:27:04;100012.66;;;24.04;26.05
12868;BME280;33517;49.866;8.320;2024-03-08T11:30:01;100018.41;;;23.07;26.25
12868;BME280;33517;49.866;8.320;2024-03-08T11:33:01;100003.44;;;23.11;27.58
12868;BME280;33517;49.866;8.320;2024-03-08T11:36:02;100003.22;;;24.01;25.67
12868;BME280;33517;49.866;8.320;2024-03-08T11:38:57;100005.63;;;22.87;26.24
12868;BME280;33517;49.866;8.320;2024-03-08T11:41:50;99997.47;;;22.77;27.00
12868;BME280;33517;49.866;8.320;2024-03-08T11:44:42;99990.50;;;23.35;26.18
12868;BME280;33517;49.866;8.320;2024-03-08T11:47:35;99986.09;;;24.22;25.95
12868;BME280;33517;49.866;8.320;2024-03-08T11:50:30;99999.03;;;23.32;26.08
12868;BME280;33517;49.866;8.320;2024-03-08T11:53:25;99992.78;;;23.21;26.01
12868;BME280;33517;49.866;8.320;2024-03-08T11:56:17;99977.09;;;22.76;26.69
12868;BME280;33517;49.866;8.320;2024-03-08T11:59:11;99987.78;;;22.45;27.27
12868;BME280;33517;49.866;8.320;2024-03-08T12:02:05;99972.53;;;23.45;26.30
12868;BME280;33517;49.866;8.320;2024-03-08T12:05:01;99968.91;;;23.25;27.01
12868;BME280;33517;49.866;8.320;2024-03-08T12:07:56;99966.94;;;23.15;26.83
12868;BME280;33517;49.866;8.320;2024-03-08T12:10:50;99952.72;;;23.56;26.56
12868;BME280;33517;49.866;8.320;2024-03-08T12:13:41;99960.44;;;23.06;26.59
12868;BME280;33517;49.866;8.320;2024-03-08T12:16:37;99958.34;;;22.55;26.77
12868;BME280;33517;49.866;8.320;2024-03-08T12:19:29;99952.63;;;21.76;27.56
12868;BME280;33517;49.866;8.320;2024-03-08T12:22:25;99947.69;;;22.07;27.79
12868;BME280;33517;49.866;8.320;2024-03-08T12:25:16;99939.28;;;22.78;27.16
12868;BME280;33517;49.866;8.320;2024-03-08T12:28:11;99944.22;;;22.59;27.19
12868;BME280;33517;49.866;8.320;2024-03-08T12:31:06;99939.28;;;22.25;27.34
12868;BME280;33517;49.866;8.320;2024-03-08T12:34:00;99935.53;;;22.79;26.92
12868;BME280;33517;49.866;8.320;2024-03-08T12:36:54;99927.44;;;22.74;27.46
12868;BME280;33517;49.866;8.320;2024-03-08T12:39:46;99924.69;;;23.01;27.49
12868;BME280;33517;49.866;8.320;2024-03-08T12:42:38;99912.88;;;22.97;27.44
12868;BME280;33517;49.866;8.320;2024-03-08T12:45:31;99928.09;;;22.91;27.30
12868;BME280;33517;49.866;8.320;2024-03-08T12:48:23;99921.03;;;22.80;27.31
12868;BME280;33517;49.866;8.320;2024-03-08T12:51:16;99914.81;;;23.06;27.07
12868;BME280;33517;49.866;8.320;2024-03-08T12:54:08;99906.50;;;23.08;27.00
12868;BME280;33517;49.866;8.320;2024-03-08T12:57:00;99899.19;;;22.66;27.40
12868;BME280;33517;49.866;8.320;2024-03-08T12:59:54;99898.63;;;22.33;27.56
12868;BME280;33517;49.866;8.320;2024-03-08T13:02:47;99892.63;;;22.52;27.45
12868;BME280;33517;49.866;8.320;2024-03-08T13:05:40;99878.56;;;22.40;27.66
12868;BME280;33517;49.866;8.320;2024-03-08T13:08:33;99868.78;;;22.56;27.80
12868;BME280;33517;49.866;8.320;2024-03-08T13:11:26;99865.25;;;22.50;27.87
12868;BME280;33517;49.866;8.320;2024-03-08T13:14:18;99869.69;;;22.08;27.59
12868;BME280;33517;49.866;8.320;2024-03-08T13:17:10;99866.28;;;21.26;28.56
12868;BME280;33517;49.866;8.320;2024-03-08T13:20:06;99865.13;;;21.00;29.35
12868;BME280;33517;49.866;8.320;2024-03-08T13:22:59;99863.44;;;21.54;29.25
12868;BME280;33517;49.866;8.320;2024-03-08T13:25:52;99849.53;;;21.79;28.95
12868;BME280;33517;49.866;8.320;2024-03-08T13:28:45;99851.16;;;21.58;28.46
12868;BME280;33517;49.866;8.320;2024-03-08T13:31:39;99853.09;;;21.20;28.94
12868;BME280;33517;49.866;8.320;2024-03-08T13:34:31;99834.28;;;21.58;29.16
12868;BME280;33517;49.866;8.320;2024-03-08T13:37:27;99830.22;;;21.98;28.53
12868;BME280;33517;49.866;8.320;2024-03-08T13:40:20;99807.25;;;22.08;28.42
12868;BME280;33517;49.866;8.320;2024-03-08T13:43:11;99816.78;;;21.50;28.60
12868;BME280;33517;49.866;8.320;2024-03-08T13:46:04;99815.31;;;21.38;29.14
12868;BME280;33517;49.866;8.320;2024-03-08T13:49:03;99809.88;;;21.11;28.95
12868;BME280;33517;49.866;8.320;2024-03-08T13:51:56;99810.31;;;21.03;29.49
12868;BME280;33517;49.866;8.320;2024-03-08T13:54:50;99808.16;;;21.22;29.45
12868;BME280;33517;49.866;8.320;2024-03-08T13:57:42;99796.91;;;20.48;29.70
12868;BME280;33517;49.866;8.320;2024-03-08T14:00:35;99783.13;;;20.23;30.35
12868;BME280;33517;49.866;8.320;2024-03-08T14:03:27;99778.81;;;20.72;30.48
12868;BME280;33517;49.866;8.320;2024-03-08T14:06:19;99771.50;;;20.29;30.31
12868;BME280;33517;49.866;8.320;2024-03-08T14:09:14;99769.69;;;20.51;30.48
12868;BME280;33517;49.866;8.320;2024-03-08T14:12:09;99765.81;;;20.42;30.59
12868;BME280;33517;49.866;8.320;2024-03-08T14:15:01;99753.22;;;19.93;31.18
12868;BME280;33517;49.866;8.320;2024-03-08T14:17:55;99760.19;;;19.49;31.42
12868;BME280;33517;49.866;8.320;2024-03-08T14:20:48;99739.91;;;18.97;32.31
12868;BME280;33517;49.866;8.320;2024-03-08T14:23:41;99741.09;;;18.78;32.47
12868;BME280;33517;49.866;8.320;2024-03-08T14:26:33;99729.38;;;18.90;32.57
12868;BME280;33517;49.866;8.320;2024-03-08T14:29:26;99727.84;;;19.06;32.84
12868;BME280;33517;49.866;8.320;2024-03-08T14:32:21;99731.88;;;18.57;32.93
12868;BME280;33517;49.866;8.320;2024-03-08T14:35:14;99721.06;;;18.17;33.31
12868;BME280;33517;49.866;8.320;2024-03-08T14:38:06;99724.16;;;17.50;34.38
12868;BME280;33517;49.866;8.320;2024-03-08T14:40:59;99715.75;;;17.35;34.67
12868;BME280;33517;49.866;8.320;2024-03-08T14:43:51;99717.28;;;17.13;35.50
12868;BME280;33517;49.866;8.320;2024-03-08T14:46:45;99701.00;;;16.91;35.88
12868;BME280;33517;49.866;8.320;2024-03-08T14:49:39;99710.81;;;16.91;35.93
12868;BME280;33517;49.866;8.320;2024-03-08T14:52:30;99709.31;;;16.16;36.36
12868;BME280;33517;49.866;8.320;2024-03-08T14:55:22;99711.91;;;15.04;38.66
12868;BME280;33517;49.866;8.320;2024-03-08T14:58:14;99714.13;;;14.17;39.75
12868;BME280;33517;49.866;8.320;2024-03-08T15:01:06;99708.22;;;13.69;40.94
12868;BME280;33517;49.866;8.320;2024-03-08T15:03:59;99699.81;;;13.33;41.55
12868;BME280;33517;49.866;8.320;2024-03-08T15:06:59;99700.38;;;13.16;42.65
12868;BME280;33517;49.866;8.320;2024-03-08T15:09:52;99697.09;;;13.07;42.14
12868;BME280;33517;49.866;8.320;2024-03-08T15:12:46;99686.66;;;12.86;43.50
12868;BME280;33517;49.866;8.320;2024-03-08T15:15:38;99684.75;;;12.67;44.08